createdAt,value
2022-12-27T00:00:35.892Z,46.92
2022-12-27T00:03:02.641Z,46.78
2022-12-27T00:05:29.319Z,46.85
2022-12-27T00:07:56.304Z,46.67
2022-12-27T00:10:22.984Z,46.72
2022-12-27T00:12:49.607Z,46.40
2022-12-27T00:15:16.230Z,46.86
2022-12-27T00:17:42.896Z,46.65
2022-12-27T00:20:11.726Z,46.74
2022-12-27T00:22:38.735Z,46.86
2022-12-27T00:25:05.587Z,46.90
2022-12-27T00:27:32.178Z,46.87
2022-12-27T00:29:58.885Z,46.64
2022-12-27T00:32:25.448Z,46.92
2022-12-27T00:34:52.037Z,46.84
2022-12-27T00:37:18.722Z,47.19
2022-12-27T00:39:45.303Z,46.72
2022-12-27T00:42:12.045Z,47.17
2022-12-27T00:44:38.687Z,46.95
2022-12-27T00:47:05.330Z,47.25
2022-12-27T00:49:31.961Z,47.21
2022-12-27T00:51:58.578Z,46.86
2022-12-27T00:54:25.223Z,47.06
2022-12-27T00:56:51.863Z,47.11
2022-12-27T00:59:18.531Z,47.30
2022-12-27T01:01:45.459Z,47.28
2022-12-27T01:04:15.933Z,47.25
2022-12-27T01:06:42.615Z,47.30
2022-12-27T01:09:09.438Z,47.13
2022-12-27T01:11:36.086Z,46.96
2022-12-27T01:14:04.182Z,47.14
2022-12-27T01:16:31.543Z,47.21
2022-12-27T01:18:58.743Z,46.85
2022-12-27T01:21:26.099Z,47.03
2022-12-27T01:23:52.737Z,46.90
2022-12-27T01:26:20.695Z,47.27
2022-12-27T01:28:47.938Z,47.05
2022-12-27T01:31:17.080Z,47.32
2022-12-27T01:33:43.934Z,47.37
2022-12-27T01:36:12.128Z,47.03
2022-12-27T01:38:39.108Z,47.27
2022-12-27T01:41:25.705Z,47.20
2022-12-27T01:43:52.306Z,47.16
2022-12-27T01:46:19.239Z,47.28
2022-12-27T01:48:46.289Z,47.44
2022-12-27T01:51:13.055Z,47.06
2022-12-27T01:53:42.493Z,47.52
2022-12-27T01:56:18.324Z,47.25
2022-12-27T01:58:52.165Z,47.08
2022-12-27T02:01:27.180Z,47.60
2022-12-27T02:04:02.386Z,47.42
2022-12-27T02:06:30.131Z,47.60
2022-12-27T02:09:09.534Z,47.28
2022-12-27T02:11:52.389Z,47.11
2022-12-27T02:14:26.202Z,47.18
2022-12-27T02:16:55.342Z,47.59
2022-12-27T02:19:30.210Z,47.31
2022-12-27T02:22:08.156Z,47.43
2022-12-27T02:24:34.794Z,47.61
2022-12-27T02:27:07.245Z,47.33
2022-12-27T02:29:52.326Z,47.55
2022-12-27T02:32:37.560Z,47.58
2022-12-27T02:35:23.641Z,47.51
2022-12-27T02:38:10.587Z,47.50
2022-12-27T02:41:02.001Z,47.30
2022-12-27T02:43:47.618Z,47.87
2022-12-27T02:46:35.748Z,47.70
2022-12-27T02:49:20.777Z,47.69
2022-12-27T02:52:08.965Z,47.58
2022-12-27T02:54:35.961Z,47.90
2022-12-27T02:57:09.002Z,47.71
2022-12-27T03:00:17.746Z,47.95
2022-12-27T03:03:21.560Z,47.83
2022-12-27T03:06:25.509Z,47.84
2022-12-27T03:09:10.686Z,47.98
2022-12-27T03:12:12.392Z,47.82
2022-12-27T03:15:01.505Z,47.57
2022-12-27T03:17:37.349Z,48.01
2022-12-27T03:20:33.304Z,47.79
2022-12-27T03:23:20.236Z,47.79
2022-12-27T03:25:48.784Z,47.70
2022-12-27T03:28:39.374Z,48.09
2022-12-27T03:31:28.950Z,47.82
2022-12-27T03:34:04.759Z,47.80
2022-12-27T03:36:52.088Z,47.76
2022-12-27T03:39:24.612Z,47.70
2022-12-27T03:42:12.248Z,48.08
2022-12-27T03:44:39.499Z,47.99
2022-12-27T03:47:21.152Z,48.05
2022-12-27T03:49:50.522Z,47.85
2022-12-27T03:52:25.427Z,48.13
2022-12-27T03:54:52.903Z,48.08
2022-12-27T03:57:24.248Z,47.90
2022-12-27T03:59:50.966Z,47.98
2022-12-27T04:02:17.930Z,48.23
2022-12-27T04:04:44.892Z,47.86
2022-12-27T04:07:14.571Z,48.26
2022-12-27T04:09:59.651Z,48.29
2022-12-27T04:12:45.188Z,48.46
2022-12-27T04:15:30.360Z,47.98
2022-12-27T04:18:15.314Z,48.42
2022-12-27T04:21:00.486Z,48.48
2022-12-27T04:23:45.683Z,48.31
2022-12-27T04:26:30.856Z,48.43
2022-12-27T04:29:15.965Z,48.47
2022-12-27T04:32:00.933Z,48.46
2022-12-27T04:34:42.480Z,48.38
2022-12-27T04:37:10.583Z,48.67
2022-12-27T04:39:37.254Z,48.67
2022-12-27T04:42:22.479Z,48.57
2022-12-27T04:45:14.829Z,48.41
2022-12-27T04:48:00.755Z,48.43
2022-12-27T04:50:51.417Z,48.39
2022-12-27T04:53:40.448Z,48.21
2022-12-27T04:56:07.283Z,48.26
2022-12-27T04:58:34.020Z,47.91
2022-12-27T05:01:20.654Z,47.97
2022-12-27T05:03:48.393Z,47.57
2022-12-27T05:06:15.453Z,47.62
2022-12-27T05:09:00.827Z,47.81
2022-12-27T05:11:46.009Z,47.38
2022-12-27T05:14:14.129Z,47.37
2022-12-27T05:16:41.807Z,47.54
2022-12-27T05:19:09.705Z,47.31
2022-12-27T05:21:37.207Z,46.98
2022-12-27T05:24:22.676Z,47.17
2022-12-27T05:26:49.653Z,46.98
2022-12-27T05:29:16.290Z,47.21
2022-12-27T05:31:42.962Z,47.01
2022-12-27T05:34:09.675Z,46.84
2022-12-27T05:36:36.382Z,47.13
2022-12-27T05:39:03.009Z,47.06
2022-12-27T05:41:29.666Z,47.17
2022-12-27T05:43:59.646Z,47.33
2022-12-27T05:46:30.107Z,46.86
2022-12-27T05:48:56.818Z,46.94
2022-12-27T05:51:23.469Z,46.99
2022-12-27T05:53:50.081Z,46.96
2022-12-27T05:56:17.469Z,46.88
2022-12-27T05:58:44.244Z,47.15
2022-12-27T06:01:12.030Z,46.93
2022-12-27T06:03:38.832Z,47.13
2022-12-27T06:06:07.869Z,47.30
2022-12-27T06:08:34.872Z,47.40
2022-12-27T06:11:09.408Z,47.22
2022-12-27T06:13:37.045Z,47.10
2022-12-27T06:16:04.727Z,47.02
2022-12-27T06:18:32.443Z,47.05
2022-12-27T06:21:06.589Z,47.26
2022-12-27T06:23:34.046Z,47.14
2022-12-27T06:26:04.514Z,47.15
2022-12-27T06:28:31.100Z,47.11
2022-12-27T06:30:58.825Z,47.11
2022-12-27T06:33:25.557Z,47.41
2022-12-27T06:35:52.197Z,47.41
2022-12-27T06:38:18.887Z,47.07
2022-12-27T06:40:45.477Z,47.09
2022-12-27T06:43:12.150Z,47.33
2022-12-27T06:45:39.389Z,46.95
2022-12-27T06:48:06.208Z,47.19
2022-12-27T06:50:34.533Z,47.12
2022-12-27T06:53:01.142Z,47.41
2022-12-27T06:55:27.790Z,47.08
2022-12-27T06:57:54.401Z,47.03
2022-12-27T07:00:21.199Z,47.18
2022-12-27T07:02:48.291Z,47.36
2022-12-27T07:05:15.096Z,47.36
2022-12-27T07:07:41.720Z,47.39
2022-12-27T07:10:08.585Z,47.22
2022-12-27T07:12:36.937Z,47.27
2022-12-27T07:15:05.255Z,47.47
2022-12-27T07:17:31.987Z,47.48
2022-12-27T07:19:58.622Z,47.46
2022-12-27T07:22:25.338Z,47.30
2022-12-27T07:24:51.954Z,47.82
2022-12-27T07:27:18.619Z,47.75
2022-12-27T07:29:45.912Z,47.48
2022-12-27T07:32:12.976Z,47.81
2022-12-27T07:34:39.583Z,47.68
2022-12-27T07:37:06.446Z,47.67
2022-12-27T07:39:33.052Z,47.53
2022-12-27T07:42:03.354Z,47.49
2022-12-27T07:44:34.576Z,47.73
2022-12-27T07:47:01.171Z,47.36
2022-12-27T07:49:28.529Z,47.36
2022-12-27T07:51:55.117Z,47.14
2022-12-27T07:54:21.867Z,47.41
2022-12-27T07:56:48.478Z,47.00
2022-12-27T07:59:15.115Z,47.05
2022-12-27T08:02:00.570Z,47.09
2022-12-27T08:04:27.314Z,46.95
2022-12-27T08:06:55.296Z,46.80
2022-12-27T08:09:26.048Z,47.03
2022-12-27T08:11:52.645Z,46.87
2022-12-27T08:14:19.261Z,46.58
2022-12-27T08:16:46.085Z,46.65
2022-12-27T08:19:12.769Z,46.77
2022-12-27T08:21:39.439Z,46.73
2022-12-27T08:24:06.199Z,46.73
2022-12-27T08:26:32.873Z,46.69
2022-12-27T08:28:59.530Z,46.78
2022-12-27T08:31:26.205Z,46.69
2022-12-27T08:33:58.275Z,46.82
2022-12-27T08:39:12.279Z,46.48
2022-12-27T08:41:39.387Z,46.74
2022-12-27T08:44:06.649Z,46.68
2022-12-27T08:46:33.330Z,46.75
2022-12-27T08:48:59.973Z,46.50
2022-12-27T08:51:35.860Z,46.76
2022-12-27T08:54:07.358Z,46.63
2022-12-27T08:56:33.972Z,46.95
2022-12-27T08:59:00.608Z,47.00
2022-12-27T09:01:27.512Z,46.58
2022-12-27T09:03:54.207Z,46.97
2022-12-27T09:06:22.023Z,47.00
2022-12-27T09:08:49.395Z,47.07
2022-12-27T09:11:17.801Z,46.63
2022-12-27T09:13:44.616Z,46.69
2022-12-27T09:16:15.723Z,46.94
2022-12-27T09:18:43.197Z,46.68
2022-12-27T09:21:11.589Z,47.03
2022-12-27T09:23:38.917Z,46.90
2022-12-27T09:26:16.459Z,47.03
2022-12-27T09:28:43.136Z,46.89
2022-12-27T09:31:11.158Z,46.82
2022-12-27T09:33:38.077Z,47.20
2022-12-27T09:36:15.228Z,47.31
2022-12-27T09:38:44.229Z,46.91
2022-12-27T09:42:11.756Z,47.02
2022-12-27T09:44:06.726Z,46.92
2022-12-27T09:46:55.268Z,46.86
2022-12-27T09:49:33.702Z,47.05
2022-12-27T09:52:07.363Z,47.27
2022-12-27T09:54:51.419Z,47.35
2022-12-27T09:57:22.151Z,47.16
2022-12-27T09:59:54.341Z,47.38
2022-12-27T10:02:24.966Z,47.04
2022-12-27T10:05:19.226Z,47.57
2022-12-27T10:07:47.967Z,47.25
2022-12-27T10:10:38.740Z,47.61
2022-12-27T10:13:26.949Z,47.49
2022-12-27T10:16:12.736Z,47.43
2022-12-27T10:18:48.030Z,47.47
2022-12-27T10:21:22.626Z,47.32
2022-12-27T10:24:02.958Z,47.20
2022-12-27T10:26:29.621Z,47.54
2022-12-27T10:28:59.419Z,47.43
2022-12-27T10:31:26.588Z,47.58
2022-12-27T10:33:53.484Z,47.50
2022-12-27T10:36:24.272Z,47.45
2022-12-27T10:38:51.012Z,47.67
2022-12-27T10:41:26.654Z,47.62
2022-12-27T10:43:54.197Z,47.71
2022-12-27T10:46:33.297Z,47.61
2022-12-27T10:51:47.276Z,47.55
2022-12-27T10:54:15.149Z,47.61
2022-12-27T10:56:44.343Z,47.71
2022-12-27T10:59:19.024Z,47.62
2022-12-27T11:01:47.071Z,47.98
2022-12-27T11:04:20.677Z,47.72
2022-12-27T11:07:00.274Z,47.79
2022-12-27T11:09:31.844Z,47.74
2022-12-27T11:12:16.864Z,47.75
2022-12-27T11:14:55.567Z,47.75
2022-12-27T11:17:42.579Z,48.09
2022-12-27T11:20:19.735Z,47.88
2022-12-27T11:23:06.613Z,48.01
2022-12-27T11:25:33.984Z,48.19
2022-12-27T11:28:00.630Z,48.31
2022-12-27T11:30:30.240Z,48.28
2022-12-27T11:32:58.161Z,48.17
2022-12-27T11:35:24.834Z,48.24
2022-12-27T11:37:52.241Z,48.54
2022-12-27T11:40:41.504Z,48.50
2022-12-27T11:43:10.260Z,48.40
2022-12-27T11:45:42.648Z,48.35
2022-12-27T11:48:12.064Z,48.44
2022-12-27T11:50:48.352Z,48.53
2022-12-27T11:53:21.128Z,48.59
2022-12-27T11:55:47.708Z,48.57
2022-12-27T11:58:14.404Z,48.31
2022-12-27T12:00:50.038Z,48.84
2022-12-27T12:03:34.628Z,48.40
2022-12-27T12:06:16.006Z,48.81
2022-12-27T12:08:50.863Z,48.38
2022-12-27T12:11:20.249Z,48.72
2022-12-27T12:13:55.564Z,48.81
2022-12-27T12:16:31.261Z,48.61
2022-12-27T12:18:59.855Z,48.99
2022-12-27T12:21:56.048Z,48.96
2022-12-27T12:24:43.501Z,48.90
2022-12-27T12:27:10.095Z,48.72
2022-12-27T12:29:55.274Z,48.76
2022-12-27T12:32:21.906Z,48.88
2022-12-27T12:35:04.736Z,49.04
2022-12-27T12:37:51.636Z,49.11
2022-12-27T12:40:39.921Z,48.95
2022-12-27T12:43:25.180Z,48.92
2022-12-27T12:45:57.667Z,49.04
2022-12-27T12:48:30.607Z,48.88
2022-12-27T12:51:06.274Z,48.88
2022-12-27T12:53:38.775Z,49.05
2022-12-27T12:56:23.936Z,49.13
2022-12-27T12:59:13.931Z,49.02
2022-12-27T13:01:59.636Z,48.97
2022-12-27T13:04:55.791Z,49.02
2022-12-27T13:07:40.674Z,49.19
2022-12-27T13:10:10.144Z,49.33
2022-12-27T13:12:53.075Z,49.06
2022-12-27T13:15:28.713Z,49.28
2022-12-27T13:18:01.425Z,49.00
2022-12-27T13:20:47.512Z,49.24
2022-12-27T13:23:33.056Z,49.22
2022-12-27T13:26:05.540Z,49.42
2022-12-27T13:28:43.299Z,49.61
2022-12-27T13:31:33.674Z,49.56
2022-12-27T13:34:26.794Z,49.39
2022-12-27T13:37:05.669Z,49.55
2022-12-27T13:39:44.256Z,49.55
2022-12-27T13:42:19.708Z,49.43
2022-12-27T13:45:07.591Z,49.18
2022-12-27T13:47:48.600Z,49.29
2022-12-27T13:50:43.690Z,49.62
2022-12-27T13:53:29.379Z,49.19
2022-12-27T13:56:20.615Z,49.38
2022-12-27T13:59:13.451Z,49.29
2022-12-27T14:02:01.206Z,49.79
2022-12-27T14:04:33.932Z,49.79
2022-12-27T14:07:16.001Z,49.71
2022-12-27T14:09:42.581Z,49.75
2022-12-27T14:12:24.338Z,49.73
2022-12-27T14:14:51.636Z,49.62
2022-12-27T14:17:30.379Z,49.64
2022-12-27T14:20:15.517Z,49.64
2022-12-27T14:22:42.091Z,49.59
2022-12-27T14:25:25.766Z,49.89
2022-12-27T14:28:10.175Z,49.55
2022-12-27T14:30:55.783Z,49.77
2022-12-27T14:33:22.411Z,49.77
2022-12-27T14:36:10.055Z,49.80
2022-12-27T14:38:36.686Z,50.13
2022-12-27T14:41:26.598Z,49.99
2022-12-27T14:43:59.195Z,49.81
2022-12-27T14:46:31.854Z,49.89
2022-12-27T14:49:17.207Z,50.00
2022-12-27T14:52:00.710Z,50.26
2022-12-27T14:54:31.274Z,49.87
2022-12-27T14:57:16.446Z,49.78
2022-12-27T14:59:58.087Z,49.95
2022-12-27T15:02:43.200Z,50.11
2022-12-27T15:05:28.578Z,50.32
2022-12-27T15:08:10.316Z,50.15
2022-12-27T15:10:59.393Z,50.07
2022-12-27T15:13:49.490Z,50.09
2022-12-27T15:16:23.301Z,50.14
2022-12-27T15:18:56.474Z,50.00
2022-12-27T15:21:42.117Z,50.42
2022-12-27T15:24:11.640Z,50.13
2022-12-27T15:27:01.344Z,50.35
2022-12-27T15:29:28.241Z,50.27
2022-12-27T15:31:57.735Z,50.39
2022-12-27T15:34:33.457Z,50.43
2022-12-27T15:37:00.185Z,50.36
2022-12-27T15:39:35.805Z,50.68
2022-12-27T15:42:14.607Z,50.83
2022-12-27T15:44:44.394Z,50.54
2022-12-27T15:47:36.411Z,50.86
2022-12-27T15:50:02.985Z,50.73
2022-12-27T15:52:29.585Z,50.99
2022-12-27T15:54:56.217Z,51.00
2022-12-27T15:57:44.159Z,50.82
2022-12-27T16:00:15.604Z,51.12
2022-12-27T16:02:45.262Z,50.99
2022-12-27T16:05:17.858Z,50.87
2022-12-27T16:08:13.724Z,50.78
2022-12-27T16:10:40.645Z,50.79
2022-12-27T16:13:10.486Z,51.03
2022-12-27T16:15:41.264Z,51.17
2022-12-27T16:18:27.771Z,51.11
2022-12-27T16:20:57.484Z,51.28
2022-12-27T16:23:29.796Z,51.16
2022-12-27T16:26:19.888Z,50.98
2022-12-27T16:28:52.705Z,51.09
2022-12-27T16:31:23.830Z,51.13
2022-12-27T16:33:51.204Z,51.21
2022-12-27T16:36:26.035Z,51.68
2022-12-27T16:39:11.600Z,51.61
2022-12-27T16:41:38.215Z,51.52
2022-12-27T16:44:13.910Z,51.80
2022-12-27T16:46:56.123Z,51.47
2022-12-27T16:49:25.843Z,51.59
2022-12-27T16:51:52.458Z,51.95
2022-12-27T16:54:21.851Z,51.77
2022-12-27T16:56:49.402Z,51.59
2022-12-27T16:59:35.031Z,51.85
2022-12-27T17:02:01.948Z,51.77
2022-12-27T17:04:47.333Z,51.83
2022-12-27T17:07:33.883Z,51.91
2022-12-27T17:10:20.431Z,51.80
2022-12-27T17:12:50.189Z,52.15
2022-12-27T17:15:17.013Z,51.92
2022-12-27T17:17:46.538Z,52.07
2022-12-27T17:20:16.825Z,52.32
2022-12-27T17:22:43.615Z,52.00
2022-12-27T17:25:18.449Z,52.35
2022-12-27T17:27:45.053Z,52.33
2022-12-27T17:30:20.079Z,52.27
2022-12-27T17:33:02.663Z,52.46
2022-12-27T17:35:39.760Z,52.29
2022-12-27T17:38:20.311Z,52.36
2022-12-27T17:40:47.012Z,52.70
2022-12-27T17:43:35.605Z,52.68
2022-12-27T17:46:05.239Z,52.69
2022-12-27T17:48:33.063Z,52.55
2022-12-27T17:51:02.154Z,52.70
2022-12-27T17:53:47.713Z,52.30
2022-12-27T17:56:34.862Z,52.48
2022-12-27T17:59:21.721Z,52.75
2022-12-27T18:01:50.622Z,52.59
2022-12-27T18:04:28.119Z,52.39
2022-12-27T18:07:00.581Z,52.45
2022-12-27T18:09:27.160Z,52.58
2022-12-27T18:11:53.837Z,52.66
2022-12-27T18:14:21.094Z,52.56
2022-12-27T18:16:47.944Z,52.65
2022-12-27T18:19:21.016Z,52.64
2022-12-27T18:21:58.181Z,52.56
2022-12-27T18:24:29.942Z,52.96
2022-12-27T18:27:04.199Z,52.89
2022-12-27T18:29:31.268Z,52.51
2022-12-27T18:32:00.074Z,52.67
2022-12-27T18:34:30.722Z,52.85
2022-12-27T18:37:00.944Z,52.90
2022-12-27T18:39:27.537Z,53.01
2022-12-27T18:41:54.620Z,53.16
2022-12-27T18:44:27.085Z,53.56
2022-12-27T18:46:55.500Z,53.33
2022-12-27T18:49:31.833Z,53.57
2022-12-27T18:51:58.648Z,53.75
2022-12-27T18:54:28.112Z,53.48
2022-12-27T18:56:59.237Z,53.49
2022-12-27T18:59:28.920Z,53.43
2022-12-27T19:01:59.586Z,53.11
2022-12-27T19:04:33.782Z,53.20
2022-12-27T19:07:11.478Z,53.01
2022-12-27T19:09:38.059Z,53.10
2022-12-27T19:12:18.129Z,52.98
2022-12-27T19:14:46.363Z,52.67
2022-12-27T19:17:18.738Z,52.82
2022-12-27T19:19:47.166Z,52.47
2022-12-27T19:22:32.668Z,52.40
2022-12-27T19:25:04.791Z,52.54
2022-12-27T19:27:31.740Z,52.28
2022-12-27T19:29:58.348Z,52.18
2022-12-27T19:32:33.397Z,51.96
2022-12-27T19:35:01.992Z,52.26
2022-12-27T19:37:30.611Z,51.79
2022-12-27T19:39:57.923Z,51.73
2022-12-27T19:42:29.593Z,51.92
2022-12-27T19:44:56.308Z,51.70
2022-12-27T19:47:22.966Z,51.97
2022-12-27T19:49:49.910Z,51.80
2022-12-27T19:52:18.890Z,51.51
2022-12-27T19:54:46.245Z,51.47
2022-12-27T19:57:13.153Z,51.50
2022-12-27T19:59:39.912Z,51.66
2022-12-27T20:02:06.644Z,51.38
2022-12-27T20:04:33.532Z,51.49
2022-12-27T20:07:00.810Z,51.32
2022-12-27T20:09:27.909Z,51.40
2022-12-27T20:11:54.602Z,51.68
2022-12-27T20:14:21.211Z,51.24
2022-12-27T20:16:48.110Z,51.50
2022-12-27T20:19:16.619Z,51.44
2022-12-27T20:21:43.319Z,51.47
2022-12-27T20:24:10.859Z,51.30
2022-12-27T20:26:37.697Z,51.45
2022-12-27T20:29:04.861Z,51.21
2022-12-27T20:31:31.497Z,51.52
2022-12-27T20:33:58.142Z,51.41
2022-12-27T20:36:24.909Z,51.25
2022-12-27T20:38:51.548Z,51.49
2022-12-27T20:41:19.622Z,51.62
2022-12-27T20:43:46.672Z,51.63
2022-12-27T20:46:16.723Z,51.11
2022-12-27T20:48:44.755Z,51.39
2022-12-27T20:51:12.848Z,51.57
2022-12-27T20:53:39.544Z,51.56
2022-12-27T20:56:09.104Z,51.35
2022-12-27T20:58:35.754Z,51.44
2022-12-27T21:01:06.452Z,51.34
2022-12-27T21:03:33.254Z,51.34
2022-12-27T21:06:04.942Z,51.21
2022-12-27T21:08:40.463Z,51.31
2022-12-27T21:11:12.548Z,51.70
2022-12-27T21:13:39.895Z,51.50
2022-12-27T21:16:09.767Z,51.36
2022-12-27T21:18:36.430Z,51.41
2022-12-27T21:21:07.491Z,51.32
2022-12-27T21:23:34.871Z,51.85
2022-12-27T21:26:05.454Z,51.59
2022-12-27T21:28:32.211Z,51.47
2022-12-27T21:30:59.167Z,51.56
2022-12-27T21:33:25.923Z,51.55
2022-12-27T21:35:59.474Z,52.02
2022-12-27T21:38:26.735Z,51.89
2022-12-27T21:40:57.182Z,52.14
2022-12-27T21:43:23.888Z,52.60
2022-12-27T21:45:50.530Z,52.46
2022-12-27T21:48:17.145Z,52.51
2022-12-27T21:50:43.856Z,52.72
2022-12-27T21:53:10.476Z,52.82
2022-12-27T21:55:37.160Z,52.38
2022-12-27T21:58:03.777Z,52.59
2022-12-27T22:00:38.397Z,52.53
2022-12-27T22:03:05.209Z,52.60
2022-12-27T22:05:32.037Z,52.38
2022-12-27T22:07:58.740Z,52.51
2022-12-27T22:10:25.442Z,52.33
2022-12-27T22:12:52.162Z,52.05
2022-12-27T22:15:18.749Z,52.43
2022-12-27T22:17:45.415Z,52.09
2022-12-27T22:20:12.488Z,52.49
2022-12-27T22:22:39.149Z,52.36
2022-12-27T22:25:06.133Z,52.14
2022-12-27T22:27:32.754Z,52.31
2022-12-27T22:29:59.466Z,52.37
2022-12-27T22:32:26.097Z,52.13
2022-12-27T22:34:52.731Z,52.05
2022-12-27T22:37:19.316Z,52.23
2022-12-27T22:39:45.942Z,52.35
2022-12-27T22:42:12.571Z,52.28
2022-12-27T22:44:39.141Z,52.02
2022-12-27T22:49:52.336Z,52.10
2022-12-27T22:52:18.912Z,52.09
2022-12-27T22:55:04.442Z,52.28
2022-12-27T22:57:32.148Z,52.26
2022-12-27T22:59:58.757Z,51.92
2022-12-27T23:02:25.481Z,52.27
2022-12-27T23:04:52.207Z,52.22
2022-12-27T23:07:20.277Z,52.15
2022-12-27T23:09:46.933Z,51.79
2022-12-27T23:12:13.828Z,52.05
2022-12-27T23:14:40.683Z,51.94
2022-12-27T23:17:07.373Z,51.94
2022-12-27T23:19:34.061Z,52.35
2022-12-27T23:22:00.700Z,52.19
2022-12-27T23:24:27.286Z,52.20
2022-12-27T23:26:53.929Z,51.91
2022-12-27T23:29:20.516Z,51.98
2022-12-27T23:31:55.385Z,52.32
2022-12-27T23:34:27.758Z,52.19
2022-12-27T23:36:55.149Z,52.42
2022-12-27T23:39:21.895Z,51.97
2022-12-27T23:41:48.493Z,52.19
2022-12-27T23:44:16.106Z,52.15
2022-12-27T23:46:45.300Z,52.27
2022-12-27T23:49:12.013Z,52.36
2022-12-27T23:51:38.663Z,52.47
2022-12-27T23:54:05.373Z,52.56
2022-12-27T23:56:32.696Z,52.43
2022-12-27T23:59:00.170Z,52.28
